GAP2315 RPVM-RPMY
Flight info
| Callsign | GAP2315 |
|---|---|
| Flight time | N/A |
| Altitude | 17000 |
| Route | DUMEX4P DUMEX W6A SAGOL SAGOL4A |
| Aircraft | DH8D/M-SDE2E3FGRY/H |
Departure
| Time | 2026-04-28 12:48 |
|---|---|
| Airport | Mactan Cebu International Airport (RPVM) |
Arrival
| Time | N/A |
|---|---|
| Airport | Laguindingan International Airport (RPMY) |
| Time | Latitude | Longitude | Altitude | Speed | Heading |
|---|---|---|---|---|---|
| 2026-04-28 12:31 | 10.31784 | 123.98189 | 38 ft | 0 kts | 314° |
| 2026-04-28 12:36 | 10.31784 | 123.98188 | 38 ft | 0 kts | 314° |
| 2026-04-28 12:36 | 10.31782 | 123.98190 | 37 ft | 2 kts | 314° |
| 2026-04-28 12:36 | 10.31776 | 123.98197 | 37 ft | 1 kts | 314° |
| 2026-04-28 12:37 | 10.31767 | 123.98209 | 37 ft | 2 kts | 293° |
| 2026-04-28 12:37 | 10.31764 | 123.98223 | 37 ft | 2 kts | 268° |
| 2026-04-28 12:37 | 10.31765 | 123.98233 | 37 ft | 0 kts | 251° |
| 2026-04-28 12:37 | 10.31754 | 123.98215 | 37 ft | 4 kts | 222° |
| 2026-04-28 12:38 | 10.31720 | 123.98194 | 37 ft | 6 kts | 210° |
| 2026-04-28 12:38 | 10.31695 | 123.98177 | 37 ft | 1 kts | 224° |
| 2026-04-28 12:38 | 10.31690 | 123.98173 | 37 ft | 0 kts | 226° |
| 2026-04-28 12:38 | 10.31690 | 123.98172 | 37 ft | 0 kts | 226° |
| 2026-04-28 12:40 | 10.31681 | 123.98163 | 37 ft | 3 kts | 224° |
| 2026-04-28 12:41 | 10.31652 | 123.98135 | 37 ft | 6 kts | 221° |
| 2026-04-28 12:41 | 10.31609 | 123.98118 | 37 ft | 7 kts | 173° |
| 2026-04-28 12:41 | 10.31563 | 123.98149 | 37 ft | 8 kts | 134° |
| 2026-04-28 12:41 | 10.31520 | 123.98193 | 37 ft | 8 kts | 134° |
| 2026-04-28 12:42 | 10.31472 | 123.98231 | 37 ft | 8 kts | 171° |
| 2026-04-28 12:42 | 10.31420 | 123.98199 | 37 ft | 10 kts | 224° |
| 2026-04-28 12:42 | 10.31362 | 123.98141 | 37 ft | 14 kts | 225° |
| 2026-04-28 12:42 | 10.31279 | 123.98058 | 37 ft | 19 kts | 225° |
| 2026-04-28 12:43 | 10.31185 | 123.97963 | 37 ft | 18 kts | 224° |
| 2026-04-28 12:43 | 10.31098 | 123.97876 | 37 ft | 17 kts | 224° |
| 2026-04-28 12:43 | 10.31015 | 123.97792 | 37 ft | 17 kts | 225° |
| 2026-04-28 12:43 | 10.30928 | 123.97704 | 37 ft | 18 kts | 225° |
| 2026-04-28 12:44 | 10.30834 | 123.97610 | 37 ft | 19 kts | 225° |
| 2026-04-28 12:44 | 10.30735 | 123.97510 | 37 ft | 20 kts | 225° |
| 2026-04-28 12:44 | 10.30633 | 123.97408 | 37 ft | 20 kts | 225° |
| 2026-04-28 12:44 | 10.30528 | 123.97303 | 37 ft | 21 kts | 225° |
| 2026-04-28 12:45 | 10.30416 | 123.97192 | 37 ft | 23 kts | 225° |
| 2026-04-28 12:45 | 10.30296 | 123.97072 | 37 ft | 25 kts | 225° |
| 2026-04-28 12:45 | 10.30177 | 123.96954 | 37 ft | 21 kts | 224° |
| 2026-04-28 12:45 | 10.30077 | 123.96854 | 37 ft | 18 kts | 225° |
| 2026-04-28 12:46 | 10.29989 | 123.96765 | 37 ft | 16 kts | 225° |
| 2026-04-28 12:46 | 10.29925 | 123.96706 | 37 ft | 9 kts | 206° |
| 2026-04-28 12:46 | 10.29863 | 123.96726 | 37 ft | 10 kts | 134° |
| 2026-04-28 12:46 | 10.29804 | 123.96787 | 37 ft | 13 kts | 136° |
| 2026-04-28 12:47 | 10.29737 | 123.96855 | 37 ft | 13 kts | 134° |
| 2026-04-28 12:47 | 10.29744 | 123.96928 | 37 ft | 11 kts | 48° |
| 2026-04-28 12:47 | 10.29913 | 123.97098 | 38 ft | 76 kts | 44° |
| 2026-04-28 12:47 | 10.30493 | 123.97682 | 64 ft | 148 kts | 45° |
| 2026-04-28 12:48 | 10.31256 | 123.98476 | 545 ft | 168 kts | 46° |
| 2026-04-28 12:48 | 10.32098 | 123.99352 | 1241 ft | 180 kts | 45° |
| 2026-04-28 12:48 | 10.32994 | 124.00262 | 2032 ft | 185 kts | 45° |
| 2026-04-28 12:48 | 10.33831 | 124.01273 | 2578 ft | 191 kts | 65° |
| 2026-04-28 12:49 | 10.33896 | 124.02587 | 3132 ft | 198 kts | 104° |
| 2026-04-28 12:49 | 10.33073 | 124.03725 | 3698 ft | 208 kts | 140° |
| 2026-04-28 12:49 | 10.31710 | 124.04258 | 4295 ft | 214 kts | 165° |
| 2026-04-28 12:49 | 10.30248 | 124.04486 | 4895 ft | 214 kts | 165° |
| 2026-04-28 12:50 | 10.28820 | 124.04877 | 5500 ft | 213 kts | 160° |
| 2026-04-28 12:50 | 10.27374 | 124.05272 | 6099 ft | 213 kts | 162° |
| 2026-04-28 12:50 | 10.25931 | 124.05641 | 6631 ft | 216 kts | 162° |
| 2026-04-28 12:50 | 10.24483 | 124.06014 | 7198 ft | 216 kts | 162° |
| 2026-04-28 12:51 | 10.23024 | 124.06392 | 7709 ft | 219 kts | 162° |
| 2026-04-28 12:51 | 10.21543 | 124.06776 | 8206 ft | 221 kts | 161° |
| 2026-04-28 12:51 | 10.20029 | 124.07170 | 8684 ft | 224 kts | 162° |
| 2026-04-28 12:51 | 10.18525 | 124.07562 | 9188 ft | 225 kts | 162° |
| 2026-04-28 12:52 | 10.16992 | 124.07962 | 9628 ft | 229 kts | 162° |
| 2026-04-28 12:52 | 10.15454 | 124.08363 | 10126 ft | 229 kts | 162° |
| 2026-04-28 12:52 | 10.13886 | 124.08772 | 10573 ft | 232 kts | 162° |
| 2026-04-28 12:52 | 10.12304 | 124.09186 | 10997 ft | 240 kts | 162° |
| 2026-04-28 12:53 | 10.10627 | 124.09627 | 11401 ft | 256 kts | 162° |
| 2026-04-28 12:53 | 10.09450 | 124.09935 | 11702 ft | 266 kts | 163° |
| 2026-04-28 12:53 | 10.07629 | 124.10413 | 12299 ft | 274 kts | 163° |
| 2026-04-28 12:53 | 10.05810 | 124.10885 | 13224 ft | 269 kts | 163° |
| 2026-04-28 12:54 | 10.04597 | 124.11201 | 13602 ft | 276 kts | 163° |